createdAt,value
2022-12-25T00:01:21.938Z,95.63
2022-12-25T00:03:51.950Z,95.60
2022-12-25T00:06:21.476Z,95.54
2022-12-25T00:08:50.244Z,95.43
2022-12-25T00:11:20.388Z,95.26
2022-12-25T00:13:49.459Z,95.46
2022-12-25T00:16:24.463Z,95.41
2022-12-25T00:18:54.385Z,95.47
2022-12-25T00:21:23.126Z,95.37
2022-12-25T00:23:56.943Z,95.84
2022-12-25T00:26:27.841Z,95.83
2022-12-25T00:28:58.458Z,95.80
2022-12-25T00:31:27.912Z,95.97
2022-12-25T00:33:56.868Z,95.87
2022-12-25T00:36:25.520Z,95.59
2022-12-25T00:38:54.124Z,95.32
2022-12-25T00:41:42.915Z,95.20
2022-12-25T00:44:14.027Z,95.17
2022-12-25T00:46:43.887Z,95.03
2022-12-25T00:49:12.719Z,94.49
2022-12-25T00:51:41.508Z,94.53
2022-12-25T00:54:10.398Z,94.31
2022-12-25T00:56:40.329Z,94.25
2022-12-25T00:59:09.408Z,94.34
2022-12-25T01:01:38.919Z,94.07
2022-12-25T01:04:09.062Z,93.87
2022-12-25T01:06:37.978Z,93.40
2022-12-25T01:09:25.751Z,92.89
2022-12-25T01:11:54.440Z,92.74
2022-12-25T01:14:23.233Z,92.73
2022-12-25T01:16:52.031Z,92.63
2022-12-25T01:19:20.649Z,92.68
2022-12-25T01:21:49.212Z,92.40
2022-12-25T01:24:19.025Z,92.14
2022-12-25T01:26:47.783Z,92.52
2022-12-25T01:29:16.807Z,92.83
2022-12-25T01:31:45.479Z,93.58
2022-12-25T01:34:14.296Z,94.06
2022-12-25T01:36:43.037Z,94.46
2022-12-25T01:39:11.722Z,94.29
2022-12-25T01:41:40.924Z,94.25
2022-12-25T01:44:35.614Z,94.14
2022-12-25T01:47:06.127Z,94.85
2022-12-25T01:49:39.040Z,95.39
2022-12-25T01:52:26.097Z,95.73
2022-12-25T01:55:04.330Z,95.96
2022-12-25T01:57:36.184Z,95.73
2022-12-25T02:00:12.093Z,96.11
2022-12-25T02:02:42.512Z,96.77
2022-12-25T02:05:27.981Z,96.85
2022-12-25T02:07:59.900Z,97.47
2022-12-25T02:10:28.960Z,97.65
2022-12-25T02:12:57.866Z,97.69
2022-12-25T02:15:40.840Z,97.76
2022-12-25T02:18:29.037Z,97.38
2022-12-25T02:21:19.374Z,97.23
2022-12-25T02:23:51.268Z,96.85
2022-12-25T02:26:53.544Z,96.66
2022-12-25T02:29:37.816Z,96.27
2022-12-25T02:32:28.997Z,95.52
2022-12-25T02:35:16.217Z,95.24
2022-12-25T02:37:57.096Z,94.83
2022-12-25T02:40:38.488Z,94.86
2022-12-25T02:43:53.348Z,94.67
2022-12-25T02:46:43.233Z,94.59
2022-12-25T02:49:37.587Z,94.71
2022-12-25T02:52:35.133Z,94.75
2022-12-25T02:55:32.147Z,94.96
2022-12-25T02:58:26.386Z,95.13
2022-12-25T03:01:24.404Z,95.31
2022-12-25T03:04:16.392Z,95.64
2022-12-25T03:07:19.178Z,95.71
2022-12-25T03:10:14.499Z,96.59
2022-12-25T03:12:55.670Z,97.05
2022-12-25T03:15:43.248Z,96.84
2022-12-25T03:18:19.116Z,96.94
2022-12-25T03:21:07.195Z,96.78
2022-12-25T03:23:58.192Z,96.95
2022-12-25T03:26:46.542Z,96.89
2022-12-25T03:29:35.193Z,96.93
2022-12-25T03:32:34.248Z,96.89
2022-12-25T03:35:23.265Z,96.62
2022-12-25T03:38:47.978Z,96.74
2022-12-25T03:41:45.105Z,97.12
2022-12-25T03:44:54.419Z,97.40
2022-12-25T03:47:57.376Z,97.42
2022-12-25T03:50:53.769Z,97.47
2022-12-25T03:53:48.369Z,97.30
2022-12-25T03:56:37.723Z,96.87
2022-12-25T03:59:25.288Z,96.71
2022-12-25T04:02:12.349Z,96.62
2022-12-25T04:04:59.489Z,96.45
2022-12-25T04:07:46.918Z,96.37
2022-12-25T04:10:34.346Z,95.94
2022-12-25T04:13:22.081Z,95.80
2022-12-25T04:16:11.572Z,95.74
2022-12-25T04:18:58.769Z,95.74
2022-12-25T04:21:46.093Z,95.63
2022-12-25T04:24:33.441Z,95.49
2022-12-25T04:27:20.851Z,95.37
2022-12-25T04:30:08.250Z,95.04
2022-12-25T04:32:55.584Z,94.80
2022-12-25T04:35:43.006Z,94.74
2022-12-25T04:38:12.008Z,94.63
2022-12-25T04:40:40.695Z,94.66
2022-12-25T04:43:09.479Z,94.53
2022-12-25T04:45:38.160Z,94.42
2022-12-25T04:48:06.950Z,94.33
2022-12-25T04:50:35.737Z,94.33
2022-12-25T04:53:04.538Z,94.20
2022-12-25T04:55:33.210Z,94.29
2022-12-25T04:58:02.000Z,94.35
2022-12-25T05:00:30.444Z,94.21
2022-12-25T05:03:00.640Z,94.23
2022-12-25T05:05:29.697Z,94.32
2022-12-25T05:07:58.403Z,94.35
2022-12-25T05:10:27.073Z,94.19
2022-12-25T05:12:55.851Z,94.22
2022-12-25T05:15:24.651Z,94.25
2022-12-25T05:17:53.429Z,94.07
2022-12-25T05:20:22.214Z,93.97
2022-12-25T05:22:51.006Z,93.97
2022-12-25T05:25:19.693Z,93.99
2022-12-25T05:27:53.751Z,94.00
2022-12-25T05:30:22.795Z,94.06
2022-12-25T05:32:51.585Z,94.02
2022-12-25T05:35:20.414Z,93.97
2022-12-25T05:37:49.032Z,94.06
2022-12-25T05:40:17.947Z,94.09
2022-12-25T05:42:46.853Z,94.08
2022-12-25T05:45:15.600Z,93.98
2022-12-25T05:47:44.414Z,93.96
2022-12-25T05:50:13.103Z,94.00
2022-12-25T05:52:41.893Z,94.01
2022-12-25T05:55:10.674Z,94.16
2022-12-25T05:57:39.224Z,94.34
2022-12-25T06:00:09.267Z,94.06
2022-12-25T06:02:41.083Z,94.14
2022-12-25T06:05:10.450Z,94.18
2022-12-25T06:07:39.119Z,94.22
2022-12-25T06:10:09.445Z,94.21
2022-12-25T06:12:38.435Z,94.31
2022-12-25T06:15:08.353Z,94.52
2022-12-25T06:17:37.142Z,94.24
2022-12-25T06:20:08.301Z,94.32
2022-12-25T06:22:36.976Z,94.39
2022-12-25T06:25:06.751Z,94.50
2022-12-25T06:27:35.670Z,94.53
2022-12-25T06:30:06.113Z,94.50
2022-12-25T06:32:35.122Z,94.45
2022-12-25T06:35:04.108Z,94.35
2022-12-25T06:37:32.874Z,94.14
2022-12-25T06:40:01.609Z,94.08
2022-12-25T06:42:30.448Z,94.05
2022-12-25T06:44:59.157Z,94.03
2022-12-25T06:47:27.821Z,94.00
2022-12-25T06:49:56.604Z,94.03
2022-12-25T06:52:25.699Z,94.22
2022-12-25T06:54:54.488Z,94.23
2022-12-25T06:57:23.177Z,94.28
2022-12-25T06:59:55.313Z,94.08
2022-12-25T07:02:25.344Z,94.26
2022-12-25T07:04:54.256Z,94.15
2022-12-25T07:07:23.993Z,94.18
2022-12-25T07:09:52.679Z,94.04
2022-12-25T07:12:24.124Z,94.13
2022-12-25T07:14:55.485Z,93.91
2022-12-25T07:17:24.730Z,93.71
2022-12-25T07:19:53.311Z,93.61
2022-12-25T07:22:22.211Z,93.51
2022-12-25T07:24:51.119Z,93.54
2022-12-25T07:27:19.788Z,93.55
2022-12-25T07:29:48.914Z,93.53
2022-12-25T07:32:17.775Z,93.39
2022-12-25T07:34:46.409Z,93.26
2022-12-25T07:37:15.076Z,93.16
2022-12-25T07:39:43.908Z,93.11
2022-12-25T07:42:12.569Z,93.03
2022-12-25T07:44:41.442Z,92.93
2022-12-25T07:47:10.005Z,92.84
2022-12-25T07:49:38.799Z,92.95
2022-12-25T07:52:07.600Z,92.92
2022-12-25T07:54:36.290Z,92.90
2022-12-25T07:57:05.202Z,92.92
2022-12-25T07:59:33.905Z,92.94
2022-12-25T08:02:02.931Z,92.92
2022-12-25T08:04:31.880Z,93.19
2022-12-25T08:07:00.602Z,93.36
2022-12-25T08:09:29.448Z,93.54
2022-12-25T08:11:58.487Z,93.63
2022-12-25T08:14:27.373Z,93.77
2022-12-25T08:16:56.092Z,94.05
2022-12-25T08:19:25.082Z,93.95
2022-12-25T08:21:54.142Z,94.03
2022-12-25T08:24:24.576Z,93.68
2022-12-25T08:26:53.305Z,93.31
2022-12-25T08:29:22.052Z,92.81
2022-12-25T08:31:50.848Z,92.42
2022-12-25T08:34:19.738Z,92.60
2022-12-25T08:36:48.516Z,92.58
2022-12-25T08:39:17.235Z,92.28
2022-12-25T08:41:45.892Z,92.46
2022-12-25T08:44:14.677Z,92.34
2022-12-25T08:46:43.535Z,92.29
2022-12-25T08:49:12.296Z,92.17
2022-12-25T08:51:40.917Z,91.95
2022-12-25T08:54:09.621Z,92.10
2022-12-25T08:56:38.220Z,92.08
2022-12-25T08:59:06.987Z,91.86
2022-12-25T09:01:36.067Z,91.84
2022-12-25T09:04:05.597Z,91.85
2022-12-25T09:06:34.201Z,91.73
2022-12-25T09:09:02.979Z,91.67
2022-12-25T09:11:31.654Z,91.36
2022-12-25T09:14:01.148Z,91.29
2022-12-25T09:16:30.043Z,91.40
2022-12-25T09:18:59.049Z,91.34
2022-12-25T09:21:27.928Z,91.18
2022-12-25T09:23:56.618Z,91.07
2022-12-25T09:26:25.414Z,90.97
2022-12-25T09:28:54.225Z,90.93
2022-12-25T09:31:23.769Z,91.08
2022-12-25T09:33:56.956Z,90.78
2022-12-25T09:36:26.004Z,90.96
2022-12-25T09:38:54.771Z,90.94
2022-12-25T09:41:40.847Z,90.62
2022-12-25T09:44:22.140Z,90.68
2022-12-25T09:46:57.844Z,90.63
2022-12-25T09:49:52.694Z,90.35
2022-12-25T09:52:38.123Z,90.41
2022-12-25T09:55:24.378Z,90.45
2022-12-25T09:57:59.043Z,90.13
2022-12-25T10:00:42.750Z,89.98
2022-12-25T10:03:36.125Z,89.78
2022-12-25T10:06:39.803Z,89.49
2022-12-25T10:09:47.114Z,89.81
2022-12-25T10:12:30.647Z,89.93
2022-12-25T10:15:14.278Z,89.74
2022-12-25T10:18:26.582Z,89.75
2022-12-25T10:20:59.260Z,89.43
2022-12-25T10:23:55.513Z,89.60
2022-12-25T10:26:25.797Z,89.32
2022-12-25T10:29:13.032Z,89.51
2022-12-25T10:31:46.213Z,89.36
2022-12-25T10:34:16.285Z,88.72
2022-12-25T10:36:46.473Z,88.44
2022-12-25T10:39:21.179Z,87.53
2022-12-25T10:42:31.551Z,86.80
2022-12-25T10:45:04.545Z,86.90
2022-12-25T10:47:42.314Z,86.71
2022-12-25T10:50:20.978Z,86.65
2022-12-25T10:53:01.276Z,86.79
2022-12-25T10:55:30.082Z,86.93
2022-12-25T10:57:59.599Z,86.98
2022-12-25T11:00:31.873Z,87.17
2022-12-25T11:03:01.045Z,87.21
2022-12-25T11:05:37.252Z,87.58
2022-12-25T11:08:21.927Z,87.37
2022-12-25T11:10:59.716Z,87.36
2022-12-25T11:13:30.446Z,87.15
2022-12-25T11:16:13.842Z,87.19
2022-12-25T11:18:51.993Z,87.25
2022-12-25T11:21:26.912Z,86.81
2022-12-25T11:24:21.908Z,86.40
2022-12-25T11:26:54.271Z,86.45
2022-12-25T11:29:41.582Z,86.11
2022-12-25T11:32:33.621Z,85.90
2022-12-25T11:35:03.287Z,85.81
2022-12-25T11:37:54.441Z,85.57
2022-12-25T11:40:30.194Z,85.36
2022-12-25T11:43:33.030Z,85.02
2022-12-25T11:46:18.696Z,85.25
2022-12-25T11:48:59.734Z,85.71
2022-12-25T11:51:37.558Z,84.92
2022-12-25T11:54:32.469Z,84.95
2022-12-25T11:57:04.856Z,85.18
2022-12-25T11:59:50.898Z,85.17
2022-12-25T12:02:43.728Z,84.64
2022-12-25T12:05:17.593Z,84.39
2022-12-25T12:08:02.426Z,84.29
2022-12-25T12:11:17.772Z,84.25
2022-12-25T12:14:43.451Z,84.42
2022-12-25T12:17:20.301Z,84.53
2022-12-25T12:19:49.086Z,84.67
2022-12-25T12:22:25.576Z,84.01
2022-12-25T12:25:05.736Z,84.14
2022-12-25T12:27:41.259Z,84.34
2022-12-25T12:30:33.244Z,84.26
2022-12-25T12:33:06.642Z,84.29
2022-12-25T12:35:40.222Z,84.28
2022-12-25T12:38:20.371Z,84.31
2022-12-25T12:41:05.840Z,84.94
2022-12-25T12:44:01.035Z,84.75
2022-12-25T12:46:35.914Z,84.73
2022-12-25T12:49:26.828Z,84.81
2022-12-25T12:52:07.765Z,84.64
2022-12-25T12:54:59.698Z,85.02
2022-12-25T12:57:33.473Z,85.00
2022-12-25T13:00:10.068Z,85.04
2022-12-25T13:03:13.196Z,85.12
2022-12-25T13:06:22.485Z,85.04
2022-12-25T13:09:24.947Z,85.32
2022-12-25T13:11:53.889Z,85.12
2022-12-25T13:14:25.221Z,84.85
2022-12-25T13:16:55.035Z,84.98
2022-12-25T13:19:27.887Z,84.76
2022-12-25T13:22:00.665Z,84.60
2022-12-25T13:24:35.674Z,84.67
2022-12-25T13:27:26.586Z,84.53
2022-12-25T13:29:55.536Z,84.62
2022-12-25T13:32:31.010Z,84.59
2022-12-25T13:35:01.070Z,84.30
2022-12-25T13:37:32.009Z,84.52
2022-12-25T13:40:06.857Z,84.39
2022-12-25T13:42:40.248Z,84.59
2022-12-25T13:45:15.062Z,84.72
2022-12-25T13:47:49.926Z,84.97
2022-12-25T13:50:33.422Z,84.81
2022-12-25T13:53:16.317Z,84.77
2022-12-25T13:55:51.094Z,84.85
2022-12-25T13:58:31.775Z,84.79
2022-12-25T14:01:03.196Z,84.62
2022-12-25T14:03:41.890Z,84.72
2022-12-25T14:06:20.934Z,84.60
2022-12-25T14:08:51.436Z,84.84
2022-12-25T14:11:23.954Z,84.82
2022-12-25T14:14:00.297Z,85.16
2022-12-25T14:16:29.537Z,85.06
2022-12-25T14:19:01.663Z,85.10
2022-12-25T14:21:49.461Z,85.25
2022-12-25T14:24:28.138Z,85.31
2022-12-25T14:27:17.843Z,85.64
2022-12-25T14:29:48.733Z,85.87
2022-12-25T14:32:24.435Z,86.35
2022-12-25T14:35:01.861Z,86.43
2022-12-25T14:37:32.946Z,86.94
2022-12-25T14:40:24.186Z,86.88
2022-12-25T14:43:02.836Z,87.06
2022-12-25T14:45:40.911Z,87.28
2022-12-25T14:48:37.083Z,87.26
2022-12-25T14:51:15.194Z,87.66
2022-12-25T14:53:55.136Z,87.88
2022-12-25T14:56:26.541Z,88.22
2022-12-25T14:59:00.215Z,88.31
2022-12-25T15:01:42.245Z,88.79
2022-12-25T15:04:10.901Z,89.04
2022-12-25T15:06:52.291Z,88.78
2022-12-25T15:09:22.080Z,88.23
2022-12-25T15:11:53.355Z,87.91
2022-12-25T15:14:23.476Z,87.89
2022-12-25T15:16:56.943Z,88.45
2022-12-25T15:19:37.754Z,88.67
2022-12-25T15:22:07.138Z,88.79
2022-12-25T15:24:35.815Z,89.22
2022-12-25T15:27:05.680Z,89.44
2022-12-25T15:32:24.567Z,89.51
2022-12-25T15:34:54.123Z,89.77
2022-12-25T15:37:22.877Z,90.00
2022-12-25T15:39:51.660Z,90.44
2022-12-25T15:42:25.206Z,90.45
2022-12-25T15:44:54.055Z,90.19
2022-12-25T15:47:23.256Z,90.04
2022-12-25T15:49:52.059Z,90.06
2022-12-25T15:52:20.777Z,89.94
2022-12-25T15:54:49.357Z,89.95
2022-12-25T15:57:22.472Z,89.90
2022-12-25T15:59:51.257Z,89.86
2022-12-25T16:02:21.450Z,89.65
2022-12-25T16:04:51.321Z,90.07
2022-12-25T16:07:21.991Z,89.95
2022-12-25T16:09:51.220Z,90.06
2022-12-25T16:12:20.338Z,90.29
2022-12-25T16:14:49.113Z,90.36
2022-12-25T16:17:17.719Z,90.17
2022-12-25T16:19:46.537Z,90.55
2022-12-25T16:22:22.357Z,90.67
2022-12-25T16:24:52.039Z,90.61
2022-12-25T16:27:21.696Z,90.89
2022-12-25T16:29:50.328Z,90.82
2022-12-25T16:32:18.919Z,90.94
2022-12-25T16:34:49.296Z,90.89
2022-12-25T16:37:18.157Z,90.65
2022-12-25T16:39:46.779Z,90.41
2022-12-25T16:42:15.830Z,90.38
2022-12-25T16:44:45.066Z,90.27
2022-12-25T16:47:13.823Z,90.35
2022-12-25T16:49:42.404Z,90.55
2022-12-25T16:52:11.220Z,90.66
2022-12-25T16:54:39.811Z,90.85
2022-12-25T16:57:08.558Z,90.71
2022-12-25T16:59:37.452Z,90.76
2022-12-25T17:02:06.426Z,90.77
2022-12-25T17:04:35.444Z,90.98
2022-12-25T17:07:04.737Z,91.03
2022-12-25T17:09:35.379Z,90.93
2022-12-25T17:12:08.335Z,90.76
2022-12-25T17:14:37.097Z,90.85
2022-12-25T17:17:05.808Z,90.63
2022-12-25T17:19:34.716Z,90.80
2022-12-25T17:22:03.403Z,90.78
2022-12-25T17:24:33.729Z,90.78
2022-12-25T17:27:02.632Z,90.86
2022-12-25T17:29:32.109Z,90.91
2022-12-25T17:32:00.754Z,90.95
2022-12-25T17:34:29.446Z,91.39
2022-12-25T17:36:58.181Z,91.18
2022-12-25T17:39:26.976Z,91.20
2022-12-25T17:41:55.739Z,91.17
2022-12-25T17:44:24.469Z,91.32
2022-12-25T17:46:53.380Z,91.08
2022-12-25T17:49:22.737Z,90.95
2022-12-25T17:51:51.517Z,90.79
2022-12-25T17:54:20.119Z,90.41
2022-12-25T17:56:49.710Z,90.24
2022-12-25T17:59:19.019Z,89.92
2022-12-25T18:01:49.412Z,89.93
2022-12-25T18:04:18.557Z,89.69
2022-12-25T18:06:47.280Z,89.47
2022-12-25T18:09:16.317Z,89.38
2022-12-25T18:11:45.072Z,89.20
2022-12-25T18:14:16.357Z,89.24
2022-12-25T18:16:46.240Z,89.32
2022-12-25T18:19:16.238Z,89.37
2022-12-25T18:21:45.194Z,89.46
2022-12-25T18:24:14.372Z,89.55
2022-12-25T18:26:42.948Z,89.68
2022-12-25T18:29:11.708Z,89.64
2022-12-25T18:31:40.477Z,89.54
2022-12-25T18:34:09.339Z,89.50
2022-12-25T18:36:38.304Z,89.37
2022-12-25T18:39:07.090Z,89.36
2022-12-25T18:41:55.854Z,89.58
2022-12-25T18:44:24.620Z,89.58
2022-12-25T18:46:53.320Z,89.46
2022-12-25T18:49:23.065Z,89.24
2022-12-25T18:51:51.818Z,88.98
2022-12-25T18:54:20.606Z,88.79
2022-12-25T18:56:53.529Z,89.05
2022-12-25T18:59:22.602Z,88.97
2022-12-25T19:01:52.542Z,88.86
2022-12-25T19:04:21.752Z,88.74
2022-12-25T19:06:51.782Z,89.07
2022-12-25T19:09:20.605Z,88.56
2022-12-25T19:11:49.305Z,88.02
2022-12-25T19:14:18.085Z,88.23
2022-12-25T19:16:49.489Z,87.58
2022-12-25T19:19:18.374Z,87.46
2022-12-25T19:21:52.312Z,87.17
2022-12-25T19:24:24.090Z,87.39
2022-12-25T19:26:52.711Z,87.46
2022-12-25T19:29:21.310Z,87.69
2022-12-25T19:31:50.214Z,87.93
2022-12-25T19:34:19.065Z,87.88
2022-12-25T19:36:48.126Z,87.74
2022-12-25T19:39:17.381Z,88.02
2022-12-25T19:41:46.103Z,88.14
2022-12-25T19:44:15.047Z,87.85
2022-12-25T19:46:43.735Z,87.49
2022-12-25T19:49:14.221Z,87.26
2022-12-25T19:51:46.355Z,87.26
2022-12-25T19:54:20.754Z,87.31
2022-12-25T19:56:49.903Z,87.02
2022-12-25T19:59:18.558Z,86.67
2022-12-25T20:01:47.456Z,86.51
2022-12-25T20:04:18.322Z,86.54
2022-12-25T20:06:47.204Z,86.42
2022-12-25T20:09:21.548Z,86.63
2022-12-25T20:11:50.732Z,86.50
2022-12-25T20:14:20.022Z,86.82
2022-12-25T20:16:49.916Z,86.71
2022-12-25T20:19:18.752Z,86.64
2022-12-25T20:21:47.701Z,86.63
2022-12-25T20:24:16.499Z,86.57
2022-12-25T20:26:47.816Z,86.58
2022-12-25T20:29:16.862Z,86.70
2022-12-25T20:31:45.757Z,86.57
2022-12-25T20:34:14.658Z,86.81
2022-12-25T20:36:45.566Z,86.74
2022-12-25T20:39:14.458Z,86.99
2022-12-25T20:41:44.665Z,86.98
2022-12-25T20:44:13.765Z,86.83
2022-12-25T20:46:43.071Z,86.65
2022-12-25T20:49:12.673Z,86.48
2022-12-25T20:51:41.362Z,86.16
2022-12-25T20:54:11.090Z,85.68
2022-12-25T20:56:40.831Z,85.33
2022-12-25T20:59:09.924Z,85.29
2022-12-25T21:01:40.995Z,85.01
2022-12-25T21:04:14.565Z,84.93
2022-12-25T21:06:45.657Z,84.59
2022-12-25T21:09:14.675Z,84.43
2022-12-25T21:11:43.674Z,84.28
2022-12-25T21:14:12.315Z,84.34
2022-12-25T21:16:41.221Z,84.28
2022-12-25T21:19:10.009Z,83.86
2022-12-25T21:21:42.873Z,84.14
2022-12-25T21:24:11.638Z,84.22
2022-12-25T21:26:46.085Z,84.22
2022-12-25T21:29:18.255Z,84.35
2022-12-25T21:32:05.726Z,84.39
2022-12-25T21:34:34.593Z,84.30
2022-12-25T21:37:03.985Z,84.42
2022-12-25T21:39:32.776Z,84.58
2022-12-25T21:42:04.721Z,84.75
2022-12-25T21:44:34.139Z,84.74
2022-12-25T21:47:02.872Z,84.95
2022-12-25T21:49:49.942Z,85.29
2022-12-25T21:52:18.728Z,86.08
2022-12-25T21:54:47.515Z,86.37
2022-12-25T21:57:16.182Z,86.35
2022-12-25T21:59:46.358Z,86.61
2022-12-25T22:02:15.092Z,86.92
2022-12-25T22:04:44.001Z,86.62
2022-12-25T22:07:19.882Z,86.20
2022-12-25T22:09:51.719Z,86.32
2022-12-25T22:12:39.836Z,86.05
2022-12-25T22:15:10.416Z,86.40
2022-12-25T22:18:01.991Z,86.11
2022-12-25T22:20:39.104Z,85.91
2022-12-25T22:23:07.741Z,86.19
2022-12-25T22:25:36.671Z,86.82
2022-12-25T22:28:05.515Z,87.01
2022-12-25T22:30:34.481Z,87.36
2022-12-25T22:33:03.379Z,87.66
2022-12-25T22:35:32.061Z,88.00
2022-12-25T22:38:00.839Z,88.18
2022-12-25T22:40:29.571Z,88.23
2022-12-25T22:42:58.693Z,87.66
2022-12-25T22:45:27.479Z,87.63
2022-12-25T22:47:56.178Z,87.62
2022-12-25T22:50:24.965Z,87.89
2022-12-25T22:52:53.984Z,87.81
2022-12-25T22:55:22.800Z,87.92
2022-12-25T22:57:52.345Z,88.09
2022-12-25T23:00:20.959Z,88.03
2022-12-25T23:02:49.765Z,87.85
2022-12-25T23:05:18.788Z,87.45
2022-12-25T23:07:47.604Z,87.65
2022-12-25T23:10:16.425Z,87.94
2022-12-25T23:13:03.503Z,87.82
2022-12-25T23:15:32.870Z,88.09
2022-12-25T23:18:20.336Z,87.96
2022-12-25T23:21:09.061Z,87.79
2022-12-25T23:23:55.975Z,87.54
2022-12-25T23:26:24.456Z,87.26
2022-12-25T23:29:43.031Z,86.98
2022-12-25T23:32:22.687Z,86.88
2022-12-25T23:34:52.724Z,86.98
2022-12-25T23:37:21.888Z,86.97
2022-12-25T23:39:50.583Z,86.94
2022-12-25T23:42:19.583Z,86.45
2022-12-25T23:44:48.567Z,86.56
2022-12-25T23:47:17.453Z,86.34
2022-12-25T23:49:46.381Z,86.23
2022-12-25T23:52:15.457Z,86.16
2022-12-25T23:54:44.157Z,85.81
2022-12-25T23:57:13.531Z,85.42
2022-12-25T23:59:42.317Z,85.56
